createdAt,value
2023-03-06T00:01:02.113Z,8.03
2023-03-06T00:03:29.279Z,7.70
2023-03-06T00:05:58.823Z,8.05
2023-03-06T00:08:28.933Z,8.77
2023-03-06T00:10:57.519Z,7.10
2023-03-06T00:13:26.827Z,7.67
2023-03-06T00:15:54.105Z,7.38
2023-03-06T00:18:21.288Z,8.18
2023-03-06T00:20:48.393Z,7.30
2023-03-06T00:23:15.622Z,7.47
2023-03-06T00:25:45.335Z,7.10
2023-03-06T00:28:14.863Z,7.47
2023-03-06T00:30:42.443Z,7.38
2023-03-06T00:33:09.759Z,7.30
2023-03-06T00:35:39.857Z,7.37
2023-03-06T00:38:07.288Z,6.65
2023-03-06T00:40:34.510Z,6.95
2023-03-06T00:43:01.795Z,7.40
2023-03-06T00:45:29.451Z,7.77
2023-03-06T00:47:56.540Z,6.05
2023-03-06T00:50:23.638Z,6.43
2023-03-06T00:52:50.800Z,5.77
2023-03-06T00:55:18.013Z,5.78
2023-03-06T00:57:45.110Z,6.07
2023-03-06T01:00:13.886Z,6.30
2023-03-06T01:02:42.763Z,6.10
2023-03-06T01:05:12.885Z,5.05
2023-03-06T01:07:40.010Z,5.40
2023-03-06T01:10:08.641Z,4.82
2023-03-06T01:12:35.939Z,5.72
2023-03-06T01:15:04.283Z,5.50
2023-03-06T01:17:31.435Z,5.00
2023-03-06T01:19:58.855Z,5.07
2023-03-06T01:22:26.025Z,4.40
2023-03-06T01:24:53.177Z,4.93
2023-03-06T01:27:20.305Z,5.03
2023-03-06T01:29:47.420Z,5.03
2023-03-06T01:32:14.522Z,4.87
2023-03-06T01:34:41.672Z,5.25
2023-03-06T01:37:08.885Z,4.77
2023-03-06T01:39:35.976Z,4.17
2023-03-06T01:42:03.317Z,4.00
2023-03-06T01:44:30.635Z,4.67
2023-03-06T01:46:57.814Z,4.47
2023-03-06T01:49:40.241Z,4.37
2023-03-06T01:52:09.574Z,3.50
2023-03-06T01:54:43.109Z,3.80
2023-03-06T01:57:20.953Z,4.18
2023-03-06T01:59:56.000Z,4.57
2023-03-06T02:02:23.281Z,3.85
2023-03-06T02:04:50.711Z,3.67
2023-03-06T02:07:20.925Z,3.90
2023-03-06T02:09:48.062Z,4.22
2023-03-06T02:12:19.129Z,4.10
2023-03-06T02:14:47.663Z,4.03
2023-03-06T02:17:18.549Z,4.30
2023-03-06T02:20:14.974Z,4.20
2023-03-06T02:23:12.389Z,4.82
2023-03-06T02:25:51.955Z,3.95
2023-03-06T02:28:22.254Z,4.00
2023-03-06T02:30:54.561Z,4.00
2023-03-06T02:33:27.163Z,3.47
2023-03-06T02:36:06.777Z,3.90
2023-03-06T02:38:43.847Z,3.53
2023-03-06T02:41:10.940Z,3.53
2023-03-06T02:43:40.834Z,3.97
2023-03-06T02:46:08.249Z,3.97
2023-03-06T02:48:35.402Z,3.90
2023-03-06T02:51:02.569Z,3.73
2023-03-06T02:53:29.723Z,3.10
2023-03-06T02:55:56.821Z,3.70
2023-03-06T02:58:23.898Z,3.35
2023-03-06T03:00:51.286Z,3.57
2023-03-06T03:03:19.486Z,3.60
2023-03-06T03:05:46.858Z,4.00
2023-03-06T03:08:14.015Z,3.25
2023-03-06T03:10:41.190Z,3.10
2023-03-06T03:13:08.243Z,3.47
2023-03-06T03:15:35.451Z,3.55
2023-03-06T03:18:02.582Z,3.17
2023-03-06T03:20:29.870Z,3.63
2023-03-06T03:22:56.969Z,3.47
2023-03-06T03:25:26.181Z,3.55
2023-03-06T03:27:53.458Z,3.57
2023-03-06T03:30:20.790Z,3.08
2023-03-06T03:32:47.902Z,3.22
2023-03-06T03:35:15.183Z,3.70
2023-03-06T03:37:42.346Z,3.93
2023-03-06T03:40:11.649Z,4.13
2023-03-06T03:42:38.853Z,3.47
2023-03-06T03:45:06.715Z,3.42
2023-03-06T03:47:34.078Z,2.70
2023-03-06T03:50:01.233Z,3.35
2023-03-06T03:52:28.366Z,3.53
2023-03-06T03:54:55.604Z,2.85
2023-03-06T03:57:22.685Z,3.63
2023-03-06T03:59:49.784Z,3.22
2023-03-06T04:02:17.219Z,3.40
2023-03-06T04:04:44.361Z,3.53
2023-03-06T04:07:11.677Z,4.13
2023-03-06T04:09:38.916Z,3.80
2023-03-06T04:12:09.398Z,3.40
2023-03-06T04:14:36.493Z,3.47
2023-03-06T04:17:03.886Z,3.38
2023-03-06T04:19:30.961Z,3.70
2023-03-06T04:21:58.096Z,3.20
2023-03-06T04:24:25.401Z,3.55
2023-03-06T04:26:52.703Z,3.40
2023-03-06T04:29:19.955Z,3.23
2023-03-06T04:31:47.123Z,3.80
2023-03-06T04:34:14.368Z,3.30
2023-03-06T04:36:45.178Z,3.80
2023-03-06T04:39:13.674Z,4.03
2023-03-06T04:41:41.951Z,3.53
2023-03-06T04:44:09.814Z,4.03
2023-03-06T04:46:37.136Z,3.30
2023-03-06T04:49:04.271Z,3.80
2023-03-06T04:51:31.811Z,3.63
2023-03-06T04:53:59.795Z,3.90
2023-03-06T04:56:26.887Z,3.87
2023-03-06T04:58:54.119Z,4.50
2023-03-06T05:01:21.296Z,3.83
2023-03-06T05:03:50.072Z,4.33
2023-03-06T05:06:17.213Z,4.22
2023-03-06T05:08:44.443Z,4.13
2023-03-06T05:11:11.735Z,4.23
2023-03-06T05:13:38.816Z,3.93
2023-03-06T05:16:07.563Z,3.87
2023-03-06T05:18:35.086Z,4.57
2023-03-06T05:21:03.233Z,3.70
2023-03-06T05:23:32.634Z,3.50
2023-03-06T05:26:00.116Z,4.73
2023-03-06T05:28:28.688Z,3.80
2023-03-06T05:30:55.960Z,3.97
2023-03-06T05:33:23.372Z,4.33
2023-03-06T05:35:50.618Z,4.00
2023-03-06T05:38:18.455Z,3.73
2023-03-06T05:40:46.393Z,3.97
2023-03-06T05:43:13.504Z,3.93
2023-03-06T05:45:41.285Z,4.13
2023-03-06T05:48:09.300Z,4.57
2023-03-06T05:50:36.559Z,4.70
2023-03-06T05:53:04.106Z,5.83
2023-03-06T05:55:31.758Z,5.60
2023-03-06T05:57:58.820Z,6.67
2023-03-06T06:00:26.231Z,5.47
2023-03-06T06:02:53.404Z,6.17
2023-03-06T06:05:20.621Z,5.53
2023-03-06T06:07:47.708Z,4.67
2023-03-06T06:10:15.301Z,5.00
2023-03-06T06:12:42.411Z,4.75
2023-03-06T06:15:10.153Z,5.63
2023-03-06T06:17:37.271Z,4.93
2023-03-06T06:20:04.968Z,5.55
2023-03-06T06:22:32.164Z,5.47
2023-03-06T06:24:59.285Z,6.70
2023-03-06T06:27:26.432Z,7.18
2023-03-06T06:29:53.587Z,7.85
2023-03-06T06:32:20.687Z,7.68
2023-03-06T06:34:47.894Z,8.40
2023-03-06T06:37:15.128Z,7.75
2023-03-06T06:39:42.347Z,7.70
2023-03-06T06:42:29.906Z,7.88
2023-03-06T06:44:57.270Z,7.90
2023-03-06T06:47:25.571Z,7.22
2023-03-06T06:49:55.294Z,8.07
2023-03-06T06:52:24.367Z,8.10
2023-03-06T06:54:52.492Z,7.95
2023-03-06T06:57:19.640Z,7.60
2023-03-06T06:59:46.780Z,6.88
2023-03-06T07:02:16.507Z,8.15
2023-03-06T07:05:02.570Z,8.33
2023-03-06T07:07:34.656Z,7.25
2023-03-06T07:10:02.713Z,7.53
2023-03-06T07:12:32.914Z,7.75
2023-03-06T07:15:00.089Z,6.80
2023-03-06T07:17:27.226Z,8.30
2023-03-06T07:19:54.314Z,7.38
2023-03-06T07:22:24.345Z,8.20
2023-03-06T07:24:51.487Z,8.77
2023-03-06T07:27:18.574Z,9.17
2023-03-06T07:29:45.860Z,8.55
2023-03-06T07:32:13.022Z,8.73
2023-03-06T07:34:40.260Z,9.03
2023-03-06T07:37:07.386Z,9.07
2023-03-06T07:39:34.892Z,9.47
2023-03-06T07:42:02.302Z,9.35
2023-03-06T07:44:29.665Z,9.52
2023-03-06T07:46:56.860Z,9.43
2023-03-06T07:49:24.010Z,8.88
2023-03-06T07:51:51.076Z,9.77
2023-03-06T07:54:18.272Z,9.00
2023-03-06T07:56:45.585Z,9.13
2023-03-06T07:59:12.782Z,9.68
2023-03-06T08:01:40.339Z,9.00
2023-03-06T08:04:07.641Z,8.82
2023-03-06T08:06:34.934Z,9.25
2023-03-06T08:09:03.042Z,9.15
2023-03-06T08:11:32.095Z,8.95
2023-03-06T08:14:01.007Z,9.68
2023-03-06T08:16:30.491Z,8.85
2023-03-06T08:18:58.008Z,9.30
2023-03-06T08:21:28.011Z,10.10
2023-03-06T08:23:55.943Z,9.25
2023-03-06T08:26:30.297Z,9.35
2023-03-06T08:29:00.908Z,9.25
2023-03-06T08:31:43.742Z,9.57
2023-03-06T08:34:17.294Z,9.60
2023-03-06T08:36:44.991Z,9.77
2023-03-06T08:39:13.151Z,9.00
2023-03-06T08:41:42.291Z,8.85
2023-03-06T08:44:10.467Z,9.35
2023-03-06T08:46:38.051Z,10.25
2023-03-06T08:49:05.332Z,9.43
2023-03-06T08:51:33.294Z,9.38
2023-03-06T08:54:00.701Z,8.63
2023-03-06T08:56:31.685Z,9.85
2023-03-06T08:59:01.918Z,9.60
2023-03-06T09:01:33.346Z,8.93
2023-03-06T09:04:03.608Z,9.27
2023-03-06T09:06:35.882Z,9.05
2023-03-06T09:09:04.341Z,8.85
2023-03-06T09:11:32.537Z,9.48
2023-03-06T09:13:59.739Z,9.05
2023-03-06T09:16:27.562Z,9.30
2023-03-06T09:18:54.929Z,8.82
2023-03-06T09:21:23.674Z,8.38
2023-03-06T09:23:51.377Z,8.45
2023-03-06T09:26:19.045Z,8.45
2023-03-06T09:28:46.153Z,9.07
2023-03-06T09:31:19.523Z,8.73
2023-03-06T09:33:48.274Z,9.10
2023-03-06T09:36:21.816Z,8.80
2023-03-06T09:38:50.192Z,8.82
2023-03-06T09:41:34.671Z,8.98
2023-03-06T09:44:18.663Z,9.13
2023-03-06T09:47:00.877Z,8.95
2023-03-06T09:49:52.429Z,9.43
2023-03-06T09:52:34.433Z,9.98
2023-03-06T09:55:30.428Z,8.95
2023-03-06T09:58:16.150Z,9.35
2023-03-06T10:01:30.305Z,9.48
2023-03-06T10:04:37.996Z,9.32
2023-03-06T10:07:18.758Z,9.35
2023-03-06T10:10:01.192Z,9.30
2023-03-06T10:12:45.213Z,9.55
2023-03-06T10:15:26.781Z,9.43
2023-03-06T10:17:55.946Z,9.25
2023-03-06T10:20:26.830Z,9.68
2023-03-06T10:23:51.064Z,10.07
2023-03-06T10:26:32.864Z,8.90
2023-03-06T10:29:12.126Z,9.60
2023-03-06T10:31:44.751Z,8.80
2023-03-06T10:34:32.675Z,8.82
2023-03-06T10:37:12.909Z,9.43
2023-03-06T10:39:40.122Z,10.43
2023-03-06T10:42:10.154Z,8.50
2023-03-06T10:44:37.264Z,9.00
2023-03-06T10:47:36.806Z,9.23
2023-03-06T10:50:34.536Z,8.93
2023-03-06T10:53:07.103Z,8.55
2023-03-06T10:55:38.388Z,10.32
2023-03-06T10:58:23.669Z,8.88
2023-03-06T11:01:08.175Z,10.23
2023-03-06T11:03:36.879Z,9.10
2023-03-06T11:06:08.823Z,8.73
2023-03-06T11:08:37.956Z,9.63
2023-03-06T11:11:13.606Z,8.98
2023-03-06T11:13:43.536Z,9.35
2023-03-06T11:16:27.181Z,8.95
2023-03-06T11:19:17.640Z,9.43
2023-03-06T11:22:18.934Z,9.57
2023-03-06T11:24:50.551Z,8.63
2023-03-06T11:27:34.756Z,9.38
2023-03-06T11:30:49.601Z,9.25
2023-03-06T11:33:46.546Z,9.20
2023-03-06T11:36:25.421Z,10.15
2023-03-06T11:38:54.968Z,9.35
2023-03-06T11:41:31.145Z,9.35
2023-03-06T11:44:45.940Z,9.35
2023-03-06T11:47:45.320Z,9.20
2023-03-06T11:50:45.496Z,9.73
2023-03-06T11:53:35.551Z,9.23
2023-03-06T11:56:38.247Z,10.43
2023-03-06T11:59:52.265Z,9.85
2023-03-06T12:02:53.251Z,8.52
2023-03-06T12:05:33.771Z,10.10
2023-03-06T12:08:32.673Z,9.82
2023-03-06T12:11:39.464Z,8.90
2023-03-06T12:14:29.145Z,10.35
2023-03-06T12:17:13.463Z,9.43
2023-03-06T12:19:44.445Z,9.45
2023-03-06T12:22:57.520Z,8.90
2023-03-06T12:25:37.673Z,9.98
2023-03-06T12:28:23.214Z,9.68
2023-03-06T12:31:28.654Z,9.23
2023-03-06T12:34:24.821Z,9.23
2023-03-06T12:37:24.262Z,9.65
2023-03-06T12:40:10.077Z,10.02
2023-03-06T12:42:57.339Z,10.05
2023-03-06T12:45:34.790Z,10.27
2023-03-06T12:48:03.018Z,10.25
2023-03-06T12:50:34.148Z,9.52
2023-03-06T12:53:08.332Z,9.65
2023-03-06T12:55:46.274Z,9.70
2023-03-06T12:58:31.494Z,9.10
2023-03-06T13:01:25.973Z,9.13
2023-03-06T13:04:23.385Z,8.88
2023-03-06T13:07:32.231Z,9.35
2023-03-06T13:10:23.320Z,9.38
2023-03-06T13:13:01.135Z,10.43
2023-03-06T13:16:05.109Z,8.75
2023-03-06T13:18:35.235Z,8.65
2023-03-06T13:21:04.428Z,10.32
2023-03-06T13:23:49.068Z,9.68
2023-03-06T13:26:25.300Z,9.30
2023-03-06T13:28:55.260Z,9.75
2023-03-06T13:31:34.226Z,9.93
2023-03-06T13:34:04.455Z,8.63
2023-03-06T13:36:39.453Z,10.45
2023-03-06T13:39:13.350Z,9.07
2023-03-06T13:41:57.175Z,9.63
2023-03-06T13:44:24.344Z,9.82
2023-03-06T13:46:57.434Z,8.70
2023-03-06T13:49:26.123Z,9.73
2023-03-06T13:51:53.260Z,9.35
2023-03-06T13:54:32.096Z,9.60
2023-03-06T13:57:31.070Z,9.32
2023-03-06T14:00:22.032Z,9.43
2023-03-06T14:03:18.337Z,10.35
2023-03-06T14:05:50.802Z,10.25
2023-03-06T14:08:32.318Z,10.45
2023-03-06T14:11:06.936Z,9.68
2023-03-06T14:13:47.405Z,10.40
2023-03-06T14:16:47.438Z,8.90
2023-03-06T14:19:18.860Z,10.07
2023-03-06T14:21:58.286Z,10.77
2023-03-06T14:24:43.530Z,10.30
2023-03-06T14:27:18.931Z,10.10
2023-03-06T14:29:48.714Z,10.68
2023-03-06T14:32:23.184Z,10.18
2023-03-06T14:34:50.463Z,10.30
2023-03-06T14:37:24.648Z,9.75
2023-03-06T14:39:52.469Z,9.77
2023-03-06T14:42:22.307Z,10.77
2023-03-06T14:45:07.213Z,10.43
2023-03-06T14:47:36.753Z,10.38
2023-03-06T14:50:30.604Z,10.45
2023-03-06T14:53:13.207Z,11.27
2023-03-06T14:55:58.015Z,10.73
2023-03-06T14:58:38.812Z,10.93
2023-03-06T15:01:13.168Z,10.18
2023-03-06T15:03:52.584Z,10.38
2023-03-06T15:06:31.413Z,10.05
2023-03-06T15:09:27.213Z,11.02
2023-03-06T15:12:08.014Z,11.25
2023-03-06T15:14:41.560Z,10.07
2023-03-06T15:17:27.491Z,10.18
2023-03-06T15:20:00.672Z,11.75
2023-03-06T15:22:43.727Z,11.07
2023-03-06T15:25:31.986Z,11.00
2023-03-06T15:28:35.995Z,9.85
2023-03-06T15:31:10.615Z,8.48
2023-03-06T15:33:38.160Z,9.07
2023-03-06T15:36:18.301Z,9.70
2023-03-06T15:38:47.743Z,9.93
2023-03-06T15:41:45.032Z,9.00
2023-03-06T15:44:14.674Z,8.93
2023-03-06T15:46:42.361Z,8.10
2023-03-06T15:49:18.873Z,9.40
2023-03-06T15:51:46.171Z,8.18
2023-03-06T15:54:13.413Z,8.40
2023-03-06T15:56:46.919Z,8.13
2023-03-06T15:59:22.385Z,7.85
2023-03-06T16:01:51.002Z,8.93
2023-03-06T16:04:20.070Z,8.57
2023-03-06T16:06:47.593Z,8.70
2023-03-06T16:09:15.097Z,8.77
2023-03-06T16:11:45.025Z,9.57
2023-03-06T16:14:24.216Z,9.23
2023-03-06T16:16:56.672Z,9.02
2023-03-06T16:19:27.622Z,9.68
2023-03-06T16:21:56.582Z,8.70
2023-03-06T16:24:26.393Z,8.70
2023-03-06T16:26:55.230Z,9.20
2023-03-06T16:29:27.872Z,8.70
2023-03-06T16:31:58.236Z,9.50
2023-03-06T16:34:25.826Z,10.15
2023-03-06T16:36:53.776Z,9.02
2023-03-06T16:39:23.833Z,8.65
2023-03-06T16:41:52.429Z,9.40
2023-03-06T16:44:23.302Z,9.73
2023-03-06T16:46:51.284Z,9.40
2023-03-06T16:49:24.665Z,9.65
2023-03-06T16:51:53.897Z,10.45
2023-03-06T16:54:25.485Z,10.35
2023-03-06T16:56:53.447Z,9.30
2023-03-06T16:59:21.010Z,10.07
2023-03-06T17:01:48.571Z,10.18
2023-03-06T17:04:15.925Z,9.57
2023-03-06T17:06:44.616Z,10.68
2023-03-06T17:09:12.165Z,10.23
2023-03-06T17:11:39.581Z,10.43
2023-03-06T17:14:07.127Z,9.73
2023-03-06T17:16:37.679Z,9.85
2023-03-06T17:19:05.251Z,10.85
2023-03-06T17:21:35.774Z,10.88
2023-03-06T17:24:04.950Z,10.40
2023-03-06T17:26:32.850Z,9.82
2023-03-06T17:29:00.793Z,10.38
2023-03-06T17:31:29.196Z,10.15
2023-03-06T17:34:02.098Z,10.95
2023-03-06T17:36:32.300Z,10.50
2023-03-06T17:39:02.985Z,10.63
2023-03-06T17:41:32.951Z,10.48
2023-03-06T17:44:02.654Z,10.93
2023-03-06T17:46:32.499Z,11.40
2023-03-06T17:49:00.044Z,11.35
2023-03-06T17:51:28.068Z,11.20
2023-03-06T17:53:56.268Z,12.38
2023-03-06T17:56:24.281Z,12.05
2023-03-06T17:58:52.544Z,11.75
2023-03-06T18:01:27.468Z,11.38
2023-03-06T18:03:55.680Z,11.10
2023-03-06T18:06:25.224Z,11.82
2023-03-06T18:08:54.334Z,11.00
2023-03-06T18:11:23.392Z,10.73
2023-03-06T18:13:52.018Z,11.70
2023-03-06T18:16:23.884Z,11.07
2023-03-06T18:18:56.960Z,12.15
2023-03-06T18:21:26.935Z,11.93
2023-03-06T18:23:54.779Z,12.65
2023-03-06T18:26:27.436Z,12.70
2023-03-06T18:28:58.983Z,11.98
2023-03-06T18:31:40.528Z,12.52
2023-03-06T18:34:15.828Z,12.30
2023-03-06T18:36:47.906Z,12.63
2023-03-06T18:39:16.899Z,12.50
2023-03-06T18:41:44.743Z,12.40
2023-03-06T18:44:16.416Z,12.57
2023-03-06T18:46:44.642Z,12.30
2023-03-06T18:49:15.062Z,13.35
2023-03-06T18:51:43.362Z,13.27
2023-03-06T18:54:13.433Z,12.80
2023-03-06T18:56:44.629Z,13.35
2023-03-06T18:59:18.816Z,13.27
2023-03-06T19:01:48.361Z,12.43
2023-03-06T19:04:17.107Z,11.52
2023-03-06T19:06:45.698Z,12.57
2023-03-06T19:09:17.243Z,13.00
2023-03-06T19:11:47.430Z,13.05
2023-03-06T19:14:16.248Z,12.98
2023-03-06T19:16:44.020Z,13.10
2023-03-06T19:19:13.721Z,13.15
2023-03-06T19:21:44.109Z,12.23
2023-03-06T19:24:14.852Z,12.70
2023-03-06T19:26:44.234Z,13.45
2023-03-06T19:29:12.716Z,12.75
2023-03-06T19:31:44.650Z,13.13
2023-03-06T19:34:14.139Z,12.52
2023-03-06T19:36:42.681Z,13.30
2023-03-06T19:39:12.469Z,13.15
2023-03-06T19:41:40.457Z,12.77
2023-03-06T19:44:08.663Z,13.73
2023-03-06T19:46:38.818Z,12.93
2023-03-06T19:49:12.751Z,12.90
2023-03-06T19:51:43.209Z,12.45
2023-03-06T19:54:15.054Z,13.13
2023-03-06T19:56:44.358Z,11.52
2023-03-06T19:59:12.590Z,12.55
2023-03-06T20:01:40.709Z,12.23
2023-03-06T20:04:09.536Z,12.05
2023-03-06T20:06:39.315Z,13.25
2023-03-06T20:09:09.768Z,12.10
2023-03-06T20:11:39.224Z,13.05
2023-03-06T20:14:09.682Z,13.77
2023-03-06T20:16:38.696Z,13.77
2023-03-06T20:19:08.755Z,12.40
2023-03-06T20:21:38.269Z,12.30
2023-03-06T20:24:08.324Z,11.90
2023-03-06T20:26:38.141Z,12.63
2023-03-06T20:29:09.748Z,12.38
2023-03-06T20:31:42.175Z,13.02
2023-03-06T20:34:13.650Z,12.23
2023-03-06T20:36:46.872Z,13.00
2023-03-06T20:39:19.738Z,11.98
2023-03-06T20:41:49.131Z,12.80
2023-03-06T20:44:20.393Z,12.48
2023-03-06T20:46:48.253Z,11.52
2023-03-06T20:49:19.928Z,11.98
2023-03-06T20:51:48.329Z,11.55
2023-03-06T20:54:18.331Z,11.70
2023-03-06T20:56:50.681Z,11.35
2023-03-06T20:59:20.074Z,12.18
2023-03-06T21:01:48.987Z,12.05
2023-03-06T21:04:17.888Z,12.18
2023-03-06T21:06:48.185Z,11.88
2023-03-06T21:09:17.513Z,11.27
2023-03-06T21:11:46.695Z,12.38
2023-03-06T21:14:15.375Z,11.90
2023-03-06T21:16:43.464Z,12.27
2023-03-06T21:19:11.551Z,11.52
2023-03-06T21:21:38.940Z,13.10
2023-03-06T21:24:07.162Z,11.80
2023-03-06T21:26:34.447Z,12.20
2023-03-06T21:29:02.855Z,11.85
2023-03-06T21:31:30.931Z,11.80
2023-03-06T21:33:59.146Z,11.30
2023-03-06T21:36:28.623Z,12.18
2023-03-06T21:38:55.857Z,11.45
2023-03-06T21:41:28.080Z,10.73
2023-03-06T21:44:01.717Z,11.82
2023-03-06T21:46:29.515Z,10.45
2023-03-06T21:48:57.504Z,11.90
2023-03-06T21:51:26.674Z,10.90
2023-03-06T21:53:54.962Z,11.38
2023-03-06T21:56:25.455Z,10.82
2023-03-06T21:58:53.069Z,10.80
2023-03-06T22:01:28.425Z,11.10
2023-03-06T22:03:56.122Z,11.18
2023-03-06T22:06:27.270Z,10.60
2023-03-06T22:09:00.103Z,10.95
2023-03-06T22:11:31.264Z,11.67
2023-03-06T22:13:58.761Z,12.52
2023-03-06T22:16:26.088Z,11.57
2023-03-06T22:18:53.314Z,12.27
2023-03-06T22:21:22.555Z,12.55
2023-03-06T22:23:58.210Z,11.93
2023-03-06T22:26:27.375Z,11.57
2023-03-06T22:28:54.655Z,11.32
2023-03-06T22:31:25.475Z,12.23
2023-03-06T22:33:54.454Z,13.55
2023-03-06T22:36:23.408Z,12.18
2023-03-06T22:38:56.313Z,12.57
2023-03-06T22:41:26.714Z,12.32
2023-03-06T22:43:58.990Z,12.02
2023-03-06T22:46:27.135Z,11.57
2023-03-06T22:49:00.177Z,13.40
2023-03-06T22:51:29.439Z,13.30
2023-03-06T22:53:56.738Z,12.25
2023-03-06T22:56:24.501Z,13.30
2023-03-06T22:58:52.023Z,12.80
2023-03-06T23:01:23.415Z,13.10
2023-03-06T23:03:53.961Z,13.65
2023-03-06T23:06:25.249Z,12.77
2023-03-06T23:08:59.626Z,12.93
2023-03-06T23:11:28.615Z,12.25
2023-03-06T23:13:56.349Z,12.70
2023-03-06T23:16:24.139Z,14.43
2023-03-06T23:18:53.160Z,13.27
2023-03-06T23:21:22.781Z,13.00
2023-03-06T23:23:53.011Z,12.93
2023-03-06T23:26:24.451Z,13.15
2023-03-06T23:28:52.781Z,13.55
2023-03-06T23:31:28.807Z,12.85
2023-03-06T23:34:01.783Z,12.10
2023-03-06T23:36:30.554Z,13.02
2023-03-06T23:38:58.830Z,13.73
2023-03-06T23:41:26.184Z,12.05
2023-03-06T23:43:55.304Z,12.57
2023-03-06T23:46:22.640Z,12.75
2023-03-06T23:48:49.833Z,13.93
2023-03-06T23:51:21.076Z,13.35
2023-03-06T23:53:58.682Z,13.02
2023-03-06T23:56:27.889Z,13.52
2023-03-06T23:58:55.367Z,12.95
